Time;durP1;ratioP1;P1;durP2;ratioP2;P2;SDS_P1;SDS_P2;PMS_P1;PMS_P2;Temp;Humidity;BMP_temperature;BMP_pressure;BME280_temperature;BME280_humidity;BME280_pressure;Samples;Min_cycle;Max_cycle;Signal;HPM_P1;HPM_P2
2023/08/14 00:01:39;;;;;;;;;7.00;5.25;;;;;24.60;44.65;100997.22;5058809;28;45410;-55
2023/08/14 00:04:05;;;;;;;;;2.25;1.75;;;;;24.60;44.73;100997.22;5058482;28;50935;-52
2023/08/14 00:06:30;;;;;;;;;7.50;5.25;;;;;24.59;44.47;100979.63;5058843;28;50198;-54
2023/08/14 00:08:55;;;;;;;;;6.50;6.00;;;;;24.59;44.12;100971.69;5058601;28;47739;-51
2023/08/14 00:11:21;;;;;;;;;7.25;7.00;;;;;24.58;44.68;100967.34;5058738;28;45456;-52
2023/08/14 00:13:51;;;;;;;;;7.75;5.75;;;;;24.59;44.70;100976.97;5040610;28;45305;-53
2023/08/14 00:16:17;;;;;;;;;5.00;5.00;;;;;24.59;44.42;100976.97;5059029;28;45213;-51
2023/08/14 00:18:42;;;;;;;;;10.50;6.50;;;;;24.59;44.59;100973.47;5058544;28;45602;-50
2023/08/14 00:21:08;;;;;;;;;7.50;6.00;;;;;24.60;44.05;100967.22;5058686;28;45335;-44
2023/08/14 00:23:33;;;;;;;;;9.75;6.75;;;;;24.59;44.62;100958.44;5058352;28;56427;-35
2023/08/14 00:25:58;;;;;;;;;6.00;6.00;;;;;24.60;44.14;100957.47;5058790;28;45295;-35
2023/08/14 00:28:23;;;;;;;;;8.50;6.00;;;;;24.60;44.23;100949.53;5058190;28;45296;-37
2023/08/14 00:30:49;;;;;;;;;8.00;5.50;;;;;24.60;44.48;100948.66;5040095;28;52383;-36
2023/08/14 00:33:14;;;;;;;;;8.00;6.75;;;;;24.60;44.23;100954.84;5058493;28;45371;-35
2023/08/14 00:35:39;;;;;;;;;6.00;6.00;;;;;24.61;44.22;100961.81;5058499;28;45279;-42
2023/08/14 00:38:05;;;;;;;;;6.50;6.50;;;;;24.62;44.74;100957.34;5058374;28;45310;-40
2023/08/14 00:40:30;;;;;;;;;7.50;6.00;;;;;24.61;44.61;100945.94;5058065;28;49331;-41
2023/08/14 00:42:55;;;;;;;;;7.00;6.00;;;;;24.62;44.12;100946.75;5058265;28;45411;-40
2023/08/14 00:45:21;;;;;;;;;8.00;6.75;;;;;24.62;44.83;100942.31;5058361;28;45634;-36
2023/08/14 00:47:47;;;;;;;;;8.00;8.00;;;;;24.62;44.55;100944.09;5058070;28;45637;-38
2023/08/14 00:50:13;;;;;;;;;6.00;6.00;;;;;24.60;44.75;100941.59;5057663;28;45264;-36
2023/08/14 00:52:42;;;;;;;;;6.50;5.00;;;;;24.59;44.23;100937.22;5040073;28;45320;-39
2023/08/14 00:55:13;;;;;;;;;8.50;6.00;;;;;24.59;44.94;100945.19;5058214;28;45291;-36
2023/08/14 00:57:38;;;;;;;;;6.00;6.00;;;;;24.59;44.50;100931.06;5057662;28;46401;-36
2023/08/14 01:00:05;;;;;;;;;6.25;6.25;;;;;24.60;44.63;100935.41;5058148;28;45375;-37
2023/08/14 01:02:31;;;;;;;;;9.00;6.00;;;;;24.57;44.59;100938.31;5057962;28;45248;-40
2023/08/14 01:04:56;;;;;;;;;3.50;3.50;;;;;24.59;44.95;100936.38;5057459;28;54683;-36
2023/08/14 01:07:21;;;;;;;;;7.25;6.75;;;;;24.59;44.75;100937.22;5057674;28;45253;-37
2023/08/14 01:09:48;;;;;;;;;6.00;6.00;;;;;24.60;44.62;100944.22;5057769;28;45339;-36
2023/08/14 01:12:37;;;;;;;;;8.25;6.50;;;;;24.60;44.38;100938.06;5057813;28;45445;-36
2023/08/14 01:15:08;;;;;;;;;9.00;7.00;;;;;24.59;44.58;100931.94;5058313;28;45380;-43
2023/08/14 01:17:37;;;;;;;;;6.00;6.00;;;;;24.59;44.49;100942.53;5057735;28;46409;-41
2023/08/14 01:20:04;;;;;;;;;8.00;5.00;;;;;24.59;44.94;100923.13;5057603;28;45437;-44
2023/08/14 01:22:57;;;;;;;;;8.00;6.00;;;;;24.59;44.89;100926.63;5057630;28;45265;-40
2023/08/14 01:25:31;;;;;;;;;7.25;6.00;;;;;24.59;44.68;100923.97;5057765;28;45320;-37
2023/08/14 01:27:58;;;;;;;;;6.75;6.75;;;;;24.59;45.15;100916.03;5057402;28;45446;-37
2023/08/14 01:30:24;;;;;;;;;8.00;6.75;;;;;24.60;45.06;100922.16;5057367;28;45212;-38
2023/08/14 01:32:53;;;;;;;;;8.00;6.50;;;;;24.58;45.03;100927.59;5057453;28;45185;-37
2023/08/14 01:35:20;;;;;;;;;8.50;6.50;;;;;24.59;44.74;100931.94;5057634;28;45196;-38
2023/08/14 01:38:02;;;;;;;;;8.00;7.75;;;;;24.58;45.29;100927.59;5057167;28;46375;-37
2023/08/14 01:40:39;;;;;;;;;8.75;5.50;;;;;24.59;44.69;100928.41;5057360;28;45476;-37
2023/08/14 01:43:08;;;;;;;;;6.00;5.25;;;;;24.57;44.72;100917.94;5057600;28;45800;-37
2023/08/14 01:45:35;;;;;;;;;9.50;7.00;;;;;24.58;45.23;100930.25;5057468;28;45194;-38
2023/08/14 01:48:02;;;;;;;;;8.25;7.00;;;;;24.57;44.72;100925.88;5057067;28;46573;-38
2023/08/14 01:50:29;;;;;;;;;7.25;6.25;;;;;24.57;45.25;100938.31;5057145;28;45703;-49
2023/08/14 01:52:56;;;;;;;;;8.25;7.00;;;;;24.57;45.18;100935.66;5057172;28;45470;-47
2023/08/14 01:55:24;;;;;;;;;7.75;6.25;;;;;24.56;45.36;100926.84;5039278;28;45490;-50
2023/08/14 01:57:49;;;;;;;;;7.75;7.00;;;;;24.56;45.04;100924.19;5056821;28;45509;-49
2023/08/14 02:00:14;;;;;;;;;9.25;7.50;;;;;24.56;45.50;100921.53;5056878;28;45233;-48
2023/08/14 02:02:40;;;;;;;;;8.00;6.00;;;;;24.54;45.53;100924.31;5057413;28;45338;-48
2023/08/14 02:05:05;;;;;;;;;5.75;5.25;;;;;24.54;45.23;100920.81;5057023;28;45363;-56
2023/08/14 02:07:30;;;;;;;;;8.00;6.75;;;;;24.51;45.40;100915.75;5056286;28;46277;-52
2023/08/14 02:09:56;;;;;;;;;6.50;6.25;;;;;24.49;45.46;100912.34;5056929;28;45356;-37
2023/08/14 02:12:21;;;;;;;;;8.25;7.00;;;;;24.48;45.29;100908.84;5057051;28;45358;-45
2023/08/14 02:14:46;;;;;;;;;6.00;6.00;;;;;24.47;44.84;100911.59;5056359;28;55051;-43
2023/08/14 02:17:12;;;;;;;;;6.00;5.00;;;;;24.45;45.66;100902.91;5056594;28;45451;-36
2023/08/14 02:19:37;;;;;;;;;7.25;6.25;;;;;24.43;45.12;100894.22;5057058;28;45311;-39
2023/08/14 02:22:02;;;;;;;;;4.00;4.00;;;;;24.41;44.92;100912.88;5038442;28;51803;-41
2023/08/14 02:24:28;;;;;;;;;7.25;6.50;;;;;24.38;45.83;100908.66;5057046;28;45478;-36
2023/08/14 02:26:53;;;;;;;;;6.75;6.00;;;;;24.36;45.14;100899.97;5056386;28;48259;-37
2023/08/14 02:29:18;;;;;;;;;7.00;6.00;;;;;24.36;45.10;100913.22;5056237;28;55579;-37
2023/08/14 02:31:46;;;;;;;;;7.25;5.00;;;;;24.35;45.74;100898.28;5056755;28;45482;-44
2023/08/14 02:34:11;;;;;;;;;7.50;7.00;;;;;24.33;45.72;100884.28;5057149;28;45340;-39
2023/08/14 02:36:37;;;;;;;;;5.75;4.75;;;;;24.32;45.25;100879.94;5056128;28;51527;-46
2023/08/14 02:39:02;;;;;;;;;7.50;7.50;;;;;24.32;45.70;100885.25;5056491;28;45410;-54
2023/08/14 02:41:29;;;;;;;;;4.00;4.00;;;;;24.31;45.73;100890.66;5056668;28;45370;-43
2023/08/14 02:43:54;;;;;;;;;6.75;5.50;;;;;24.30;45.24;100879.22;5038658;28;45264;-38
2023/08/14 02:46:19;;;;;;;;;8.25;6.00;;;;;24.28;45.19;100873.19;5056292;28;46476;-36
2023/08/14 02:48:45;;;;;;;;;10.25;6.25;;;;;24.26;45.17;100866.28;5056312;28;45277;-37
2023/08/14 02:51:10;;;;;;;;;5.75;5.50;;;;;24.24;45.23;100869.91;5056731;28;45379;-39
2023/08/14 02:53:36;;;;;;;;;5.50;5.00;;;;;24.24;45.26;100871.69;5056385;28;45565;-45
2023/08/14 02:56:01;;;;;;;;;8.00;6.25;;;;;24.21;45.86;100862.19;5037947;28;45895;-43
2023/08/14 02:58:26;;;;;;;;;7.50;5.75;;;;;24.18;45.32;100867.69;5055966;28;45470;-43
2023/08/14 03:00:52;;;;;;;;;6.75;5.50;;;;;24.16;45.83;100868.75;5056129;28;48223;-44
2023/08/14 03:03:17;;;;;;;;;5.00;5.00;;;;;24.16;45.40;100866.09;5056176;28;45328;-45
2023/08/14 03:05:44;;;;;;;;;6.50;6.50;;;;;24.15;45.63;100859.13;5056283;28;46245;-41
2023/08/14 03:08:09;;;;;;;;;8.00;7.00;;;;;24.16;45.28;100860.81;5056383;28;45397;-49
2023/08/14 03:10:34;;;;;;;;;6.25;5.75;;;;;24.18;45.75;100866.84;5038308;28;45335;-47
2023/08/14 03:13:01;;;;;;;;;10.00;6.00;;;;;24.17;45.85;100863.34;5056236;28;45243;-50
2023/08/14 03:15:26;;;;;;;;;4.25;4.25;;;;;24.17;45.72;100870.47;5055925;28;46379;-54
2023/08/14 03:17:52;;;;;;;;;4.75;4.75;;;;;24.15;45.70;100869.72;5072022;28;45783;-39
2023/08/14 03:20:17;;;;;;;;;6.50;4.00;;;;;24.12;45.84;100870.78;5059678;28;45822;-49
2023/08/14 03:22:42;;;;;;;;;6.00;6.00;;;;;24.12;45.27;100869.91;5059702;28;45473;-49
2023/08/14 03:25:08;;;;;;;;;4.75;4.50;;;;;24.12;45.25;100864.63;5041311;28;46957;-47
2023/08/14 03:27:33;;;;;;;;;7.25;5.00;;;;;24.13;45.51;100850.44;5075089;28;45586;-50
2023/08/14 03:29:59;;;;;;;;;5.75;4.00;;;;;24.09;45.20;100849.81;5075201;28;45402;-48
2023/08/14 03:32:24;;;;;;;;;5.00;4.25;;;;;24.09;45.24;100850.63;5059624;28;45598;-37
2023/08/14 03:34:49;;;;;;;;;6.00;4.50;;;;;24.07;45.71;100851.72;5059273;28;45236;-40
2023/08/14 03:37:15;;;;;;;;;6.00;4.00;;;;;24.07;45.31;100857.00;5075048;28;45385;-39
2023/08/14 03:39:40;;;;;;;;;4.75;4.25;;;;;24.05;45.31;100870.34;5059481;28;45293;-35
2023/08/14 03:42:06;;;;;;;;;4.00;4.00;;;;;24.07;45.38;100867.59;5059165;28;45251;-40
2023/08/14 03:44:31;;;;;;;;;3.00;2.00;;;;;24.09;45.41;100865.69;5059193;28;46476;-42
2023/08/14 03:46:56;;;;;;;;;4.75;4.00;;;;;24.08;45.64;100854.28;5059256;28;45341;-36
2023/08/14 03:49:21;;;;;;;;;5.50;3.00;;;;;24.06;45.35;100857.97;5059262;28;45375;-42
2023/08/14 03:51:47;;;;;;;;;7.00;4.00;;;;;24.03;45.30;100853.72;5059343;28;45348;-35
2023/08/14 03:54:12;;;;;;;;;8.50;4.25;;;;;24.02;45.12;100846.75;5058858;28;56594;-38
2023/08/14 03:56:37;;;;;;;;;3.75;3.75;;;;;24.02;45.26;100843.25;5058661;28;45296;-43
2023/08/14 03:59:03;;;;;;;;;3.50;3.50;;;;;24.01;44.95;100842.41;5059214;28;45453;-35
2023/08/14 04:01:28;;;;;;;;;4.00;3.75;;;;;24.01;45.55;100842.41;5059269;28;45412;-39
2023/08/14 04:03:54;;;;;;;;;5.00;4.00;;;;;24.00;45.50;100839.88;5058864;28;45533;-35
2023/08/14 04:06:19;;;;;;;;;7.25;3.00;;;;;23.98;45.50;100844.41;5058727;28;49411;-40
2023/08/14 04:08:44;;;;;;;;;3.50;3.00;;;;;23.96;44.89;100847.19;5041386;28;45375;-45
2023/08/14 04:11:11;;;;;;;;;5.00;3.50;;;;;23.94;45.09;100849.88;5059113;28;45391;-44
2023/08/14 04:13:36;;;;;;;;;3.25;2.75;;;;;23.93;45.07;100850.00;5058596;28;46048;-42
2023/08/14 04:16:03;;;;;;;;;2.00;2.00;;;;;23.92;45.19;100854.44;5058801;28;45323;-44
2023/08/14 04:18:29;;;;;;;;;3.50;3.00;;;;;23.91;45.07;100860.72;5058771;28;45384;-51
2023/08/14 04:20:54;;;;;;;;;5.00;3.00;;;;;23.90;45.38;100845.78;5058994;28;45608;-46
2023/08/14 04:23:21;;;;;;;;;3.00;3.00;;;;;23.91;45.13;100846.59;5058452;28;46219;-37
2023/08/14 04:25:46;;;;;;;;;4.00;1.75;;;;;23.91;45.02;100843.97;5058910;28;45577;-37
2023/08/14 04:28:11;;;;;;;;;3.50;2.75;;;;;23.89;45.12;100840.56;5058580;28;45226;-37
2023/08/14 04:30:37;;;;;;;;;3.75;2.25;;;;;23.90;45.60;100844.91;5058103;28;45531;-43
2023/08/14 04:33:02;;;;;;;;;3.75;2.25;;;;;23.89;45.15;100843.22;5058175;28;50572;-36
2023/08/14 04:35:27;;;;;;;;;3.25;3.25;;;;;23.88;45.25;100846.81;5058411;28;45223;-38
2023/08/14 04:37:53;;;;;;;;;5.25;4.00;;;;;23.91;45.69;100846.59;5058415;28;45201;-37
2023/08/14 04:40:18;;;;;;;;;4.25;3.00;;;;;23.90;45.63;100845.78;5058512;28;47318;-46
2023/08/14 04:42:43;;;;;;;;;4.50;3.25;;;;;23.91;45.59;100847.47;5058409;28;46200;-38
2023/08/14 04:45:09;;;;;;;;;3.00;2.00;;;;;23.92;45.32;100840.38;5057958;28;52461;-36
2023/08/14 04:47:35;;;;;;;;;3.50;3.00;;;;;23.92;45.69;100837.72;5039990;28;45406;-47
2023/08/14 04:50:00;;;;;;;;;3.50;3.25;;;;;23.94;45.03;100846.41;5073625;28;48205;-37
2023/08/14 04:52:25;;;;;;;;;3.50;3.50;;;;;23.96;45.55;100848.97;5058081;28;46368;-38
2023/08/14 04:54:51;;;;;;;;;4.75;4.00;;;;;23.96;45.15;100839.25;5057828;28;48813;-38
2023/08/14 04:57:16;;;;;;;;;5.25;4.00;;;;;23.95;45.41;100842.84;5058234;28;45407;-42
2023/08/14 04:59:42;;;;;;;;;6.00;4.00;;;;;23.97;45.11;100846.22;5058317;28;45546;-47
2023/08/14 05:02:07;;;;;;;;;3.25;3.25;;;;;23.98;45.46;100842.59;5057847;28;46310;-38
2023/08/14 05:04:32;;;;;;;;;4.25;3.00;;;;;23.99;45.11;100852.25;5057819;28;45361;-40
2023/08/14 05:06:58;;;;;;;;;2.25;2.00;;;;;24.01;45.81;100855.63;5057981;28;45267;-38
2023/08/14 05:09:23;;;;;;;;;2.25;2.00;;;;;24.01;45.21;100847.69;5058135;28;45625;-40
2023/08/14 05:11:48;;;;;;;;;4.25;4.00;;;;;24.01;45.25;100837.09;5072984;28;61216;-37
2023/08/14 05:14:14;;;;;;;;;3.25;3.00;;;;;24.00;45.47;100846.00;5057836;28;45454;-41
2023/08/14 05:16:39;;;;;;;;;4.75;4.00;;;;;23.97;45.55;100845.38;5057816;28;45320;-36
2023/08/14 05:19:04;;;;;;;;;5.00;4.00;;;;;23.98;45.08;100853.19;5057943;28;45214;-35
2023/08/14 05:21:30;;;;;;;;;3.25;3.25;;;;;23.98;45.74;100855.84;5057514;28;46041;-37
2023/08/14 05:23:55;;;;;;;;;5.50;3.00;;;;;23.99;45.25;100854.88;5073289;28;45250;-39
2023/08/14 05:26:20;;;;;;;;;6.00;3.00;;;;;23.99;45.53;100854.88;5057949;28;45272;-38
2023/08/14 05:28:46;;;;;;;;;3.00;3.00;;;;;24.01;45.71;100852.16;5057826;28;45205;-36
2023/08/14 05:31:11;;;;;;;;;3.25;3.25;;;;;24.02;45.60;100849.38;5056864;28;61869;-36
2023/08/14 05:33:36;;;;;;;;;2.50;2.50;;;;;24.04;45.55;100852.78;5057438;28;45587;-35
2023/08/14 05:36:02;;;;;;;;;5.00;3.00;;;;;24.05;45.16;100849.19;5057731;28;45251;-40
2023/08/14 05:38:27;;;;;;;;;3.50;3.50;;;;;24.06;45.05;100836.78;5057653;28;45325;-44
2023/08/14 05:40:52;;;;;;;;;4.00;0.00;;;;;24.06;45.65;100845.59;5056173;28;45300;-43
2023/08/14 05:43:18;;;;;;;;;5.00;4.00;;;;;24.06;45.58;100844.72;5057703;28;45251;-35
2023/08/14 05:45:45;;;;;;;;;4.75;2.75;;;;;24.06;45.48;100840.28;5056838;28;57716;-41
2023/08/14 05:48:12;;;;;;;;;3.25;3.00;;;;;24.05;45.43;100829.78;5057503;28;45328;-36
2023/08/14 05:50:38;;;;;;;;;2.00;2.00;;;;;24.06;45.50;100827.06;5072716;28;48405;-36
2023/08/14 05:53:05;;;;;;;;;2.00;2.00;;;;;24.08;45.10;100819.84;5057160;28;46339;-35
2023/08/14 05:55:34;;;;;;;;;2.00;2.00;;;;;24.09;45.24;100813.56;5057076;28;45242;-39
2023/08/14 05:58:00;;;;;;;;;4.00;3.00;;;;;24.09;45.54;100820.69;5038934;28;45349;-39
2023/08/14 06:00:26;;;;;;;;;5.25;3.00;;;;;24.11;45.27;100815.25;5056657;28;46440;-37
2023/08/14 06:02:52;;;;;;;;;3.00;3.00;;;;;24.11;45.37;100815.25;5057249;28;45419;-36
2023/08/14 06:05:18;;;;;;;;;3.75;3.00;;;;;24.08;45.24;100825.16;5057054;28;45415;-45
2023/08/14 06:07:44;;;;;;;;;3.00;3.00;;;;;24.11;45.58;100824.06;5057179;28;46031;-37
2023/08/14 06:10:09;;;;;;;;;3.00;2.25;;;;;24.12;44.88;100817.81;5056738;28;45846;-38
2023/08/14 06:12:35;;;;;;;;;4.50;3.00;;;;;24.14;45.38;100825.66;5072292;28;45419;-37
2023/08/14 06:15:00;;;;;;;;;3.25;2.00;;;;;24.16;45.43;100831.69;5056946;28;45410;-37
2023/08/14 06:17:27;;;;;;;;;4.50;3.50;;;;;24.15;45.04;100830.00;5056908;28;45581;-36
2023/08/14 06:19:52;;;;;;;;;1.75;1.25;;;;;24.12;44.80;100824.91;5057091;28;46451;-39
2023/08/14 06:22:18;;;;;;;;;3.00;3.00;;;;;24.16;45.38;100826.38;5056685;28;45275;-41
2023/08/14 06:24:43;;;;;;;;;4.75;4.50;;;;;24.18;44.97;100832.44;5056340;28;45436;-45
2023/08/14 06:27:09;;;;;;;;;3.25;3.00;;;;;24.20;45.40;100838.44;5057073;28;45633;-38
2023/08/14 06:29:34;;;;;;;;;3.75;3.00;;;;;24.18;44.84;100835.91;5056517;28;46059;-37
2023/08/14 06:32:00;;;;;;;;;4.00;3.00;;;;;24.16;44.67;100829.03;5056497;28;45542;-51
2023/08/14 06:34:26;;;;;;;;;3.00;3.00;;;;;24.16;44.73;100829.88;5056586;28;45392;-40
2023/08/14 06:36:52;;;;;;;;;2.75;2.50;;;;;24.13;44.88;100827.47;5057000;28;45296;-46
2023/08/14 06:39:17;;;;;;;;;4.50;3.00;;;;;24.08;44.72;100830.44;5056284;28;45348;-39
2023/08/14 06:41:42;;;;;;;;;4.00;3.00;;;;;24.05;45.19;100835.94;5056283;28;45509;-40
2023/08/14 06:44:10;;;;;;;;;6.00;3.00;;;;;24.02;45.19;100833.50;5056573;28;45521;-45
2023/08/14 06:46:36;;;;;;;;;4.25;3.00;;;;;24.00;45.43;100829.28;5038592;28;45546;-40
2023/08/14 06:49:02;;;;;;;;;4.00;2.00;;;;;23.99;45.56;100833.72;5056209;28;46350;-48
2023/08/14 06:51:27;;;;;;;;;4.00;4.00;;;;;23.98;45.27;100832.00;5055987;28;45356;-49
2023/08/14 06:53:52;;;;;;;;;1.00;1.00;;;;;24.00;45.60;100839.88;5056547;28;45354;-46
2023/08/14 06:56:18;;;;;;;;;5.50;3.50;;;;;24.03;45.08;100829.91;5056132;28;45341;-53
2023/08/14 06:58:43;;;;;;;;;3.00;3.00;;;;;24.04;45.44;100836.91;5056085;28;45443;-53
2023/08/14 07:01:09;;;;;;;;;2.00;2.00;;;;;24.04;45.21;100842.19;5056120;28;45368;-51
2023/08/14 07:03:35;;;;;;;;;4.50;3.00;;;;;24.04;45.21;100844.84;5071861;28;45402;-52
2023/08/14 07:06:00;;;;;;;;;2.00;2.00;;;;;24.04;45.04;100836.91;5056414;28;45382;-39
2023/08/14 07:08:25;;;;;;;;;3.00;3.00;;;;;24.05;45.32;100841.25;5055971;28;52089;-45
2023/08/14 07:10:51;;;;;;;;;3.50;3.00;;;;;24.07;45.22;100838.47;5071196;27;45873;-39
2023/08/14 07:13:16;;;;;;;;;3.00;3.00;;;;;24.08;45.42;100838.38;5056142;28;45421;-39
2023/08/14 07:15:41;;;;;;;;;4.00;3.00;;;;;24.09;44.87;100840.03;5056197;28;45604;-40
2023/08/14 07:18:07;;;;;;;;;2.00;2.00;;;;;24.09;45.31;100845.34;5055692;28;46744;-48
2023/08/14 07:20:33;;;;;;;;;3.00;3.00;;;;;24.09;45.13;100845.34;5071627;28;46179;-39
2023/08/14 07:22:59;;;;;;;;;2.00;2.00;;;;;24.09;45.37;100836.56;5056091;28;45476;-44
2023/08/14 07:25:24;;;;;;;;;6.00;3.00;;;;;24.07;45.04;100839.34;5056537;28;45260;-54
2023/08/14 07:27:50;;;;;;;;;3.00;3.00;;;;;24.09;44.87;100840.03;5055797;28;46283;-54
2023/08/14 07:30:15;;;;;;;;;5.00;3.00;;;;;24.08;44.97;100843.69;5055900;28;45237;-48
2023/08/14 07:32:41;;;;;;;;;2.50;2.50;;;;;24.09;45.02;100845.34;5056048;28;45250;-39
2023/08/14 07:35:06;;;;;;;;;3.00;3.00;;;;;24.09;45.04;100844.50;5056213;28;45241;-53
2023/08/14 07:37:32;;;;;;;;;2.50;2.25;;;;;24.08;44.99;100848.97;5055516;28;46678;-54
2023/08/14 07:39:57;;;;;;;;;4.25;2.25;;;;;24.11;45.28;100857.63;5055998;28;45260;-43
2023/08/14 07:42:23;;;;;;;;;3.00;2.00;;;;;24.11;44.62;100847.03;5055887;28;45249;-37
2023/08/14 07:44:48;;;;;;;;;1.50;1.50;;;;;24.13;45.35;100850.44;5037448;28;51535;-49
2023/08/14 07:47:13;;;;;;;;;4.00;2.25;;;;;24.13;45.48;100853.06;5055509;28;45461;-40
2023/08/14 07:49:39;;;;;;;;;3.00;3.00;;;;;24.14;45.40;100852.13;5055466;28;45276;-45
2023/08/14 07:52:05;;;;;;;;;3.75;3.25;;;;;24.16;44.86;100850.22;5055638;28;45389;-50
2023/08/14 07:54:31;;;;;;;;;7.75;4.00;;;;;24.18;45.28;100849.16;5055965;28;45526;-40
2023/08/14 07:56:56;;;;;;;;;2.25;2.25;;;;;24.22;45.22;100852.41;5055495;28;46439;-53
2023/08/14 07:59:22;;;;;;;;;5.25;3.00;;;;;24.23;45.26;100849.69;5055433;28;45280;-54
2023/08/14 08:01:47;;;;;;;;;5.50;3.25;;;;;24.27;44.85;100857.38;5055430;28;45449;-40
2023/08/14 08:04:13;;;;;;;;;3.00;3.00;;;;;24.27;44.79;100850.31;5056624;28;45422;-39
2023/08/14 08:06:38;;;;;;;;;4.25;2.50;;;;;24.27;44.79;100852.97;5058608;28;46128;-37
2023/08/14 08:09:04;;;;;;;;;4.50;2.00;;;;;24.27;45.00;100842.38;5058790;28;45280;-37
2023/08/14 08:11:29;;;;;;;;;4.00;3.25;;;;;24.28;44.27;100843.19;5058949;28;45359;-45
2023/08/14 08:13:55;;;;;;;;;5.25;3.00;;;;;24.27;44.35;100842.38;5058893;28;45457;-48
2023/08/14 08:16:20;;;;;;;;;4.25;4.25;;;;;24.27;44.40;100841.50;5058534;28;45380;-37
2023/08/14 08:18:46;;;;;;;;;5.75;2.25;;;;;24.27;44.29;100842.38;5058583;28;45280;-37
2023/08/14 08:21:11;;;;;;;;;1.00;1.00;;;;;24.27;44.60;100844.16;5058686;28;45258;-37
2023/08/14 08:23:37;;;;;;;;;2.75;2.25;;;;;24.29;44.49;100840.47;5058733;28;45641;-41
2023/08/14 08:26:02;;;;;;;;;6.25;3.00;;;;;24.29;44.17;100839.59;5058797;28;47030;-35
2023/08/14 08:28:27;;;;;;;;;4.00;2.00;;;;;24.29;44.22;100832.50;5058565;28;45339;-45
2023/08/14 08:30:53;;;;;;;;;3.75;3.00;;;;;24.28;44.67;100833.47;5058727;28;45402;-42
2023/08/14 08:33:19;;;;;;;;;2.00;2.00;;;;;24.29;44.20;100834.28;5058727;28;45497;-49
